Overview Statistics Trail Chart Weather Telemetry Raw packets
 

This is the latest recevied weather packets stored in our database for station/object IU1OLT-6. If no packets are shown the sender has not sent any weather packets the latest 10 day(s).

<< 10 11 12 13 14 15 16 >>
Time Temp. Humidity Pressure Rain* Wind** Luminosity Snow
1788420369 17.78° C 45% 1016.8 hPa 0 mm - - -
1788419458 17.78° C 49% 1016.7 hPa 0 mm - - -
1788418402 17.22° C 52% 1016.6 hPa 0 mm - - -
1788417442 17.22° C 52% 1016.7 hPa 0 mm - - -
1788416482 16.67° C 55% 1016.6 hPa 0 mm - - -
1788415570 16.11° C 62% 1016.5 hPa 0 mm - - -
1788414658 16.67° C 62% 1016.5 hPa 0 mm - - -
1788413698 15.56° C 65% 1016.3 hPa 0 mm - - -
1788412738 15.56° C 68% 1016.3 hPa 0 mm - - -
1788411778 15° C 69% 1016.2 hPa 0 mm - - -
1788410818 15.56° C 53% 1016 hPa 0 mm - - -
1788409858 15.56° C 52% 1016 hPa 0 mm - - -
1788408898 15.56° C 58% 1016 hPa 0 mm - - -
1788407938 15.56° C 58% 1016 hPa 0 mm - - -
1788407024 15.56° C 62% 1016 hPa 0 mm - - -
1788406978 15.56° C 62% 1016 hPa 0 mm - - -
1788406066 15.56° C 59% 1016.1 hPa 0 mm - - -
1788405154 15° C 68% 1016 hPa 0 mm - - -
1788404194 15° C 69% 1015.8 hPa 0 mm - - -
1788403234 15° C 71% 1015.8 hPa 0 mm - - -
1788402274 15° C 66% 1015.9 hPa 0 mm - - -
1788401314 15° C 72% 1016.1 hPa 0 mm - - -
1788400386 15° C 75% 1016.1 hPa 0 mm - - -
1788400354 15° C 75% 1016.1 hPa 0 mm - - -
1788399394 15° C 74% 1016 hPa 0 mm - - -

* Rain latest hour (hover to see other rain measurements)
** Current wind speed in m/s (hover to see current wind gust speed)